createdAt,value
2024-05-09T00:02:22.842Z,16.70
2024-05-09T00:06:31.104Z,16.70
2024-05-09T00:10:38.708Z,16.80
2024-05-09T00:14:42.723Z,16.80
2024-05-09T00:18:45.864Z,16.80
2024-05-09T00:22:49.035Z,16.80
2024-05-09T00:26:52.140Z,16.90
2024-05-09T00:30:55.186Z,16.90
2024-05-09T00:34:58.241Z,17.00
2024-05-09T00:39:01.377Z,16.90
2024-05-09T00:43:04.516Z,16.90
2024-05-09T00:47:08.507Z,16.80
2024-05-09T00:51:11.688Z,16.80
2024-05-09T00:55:16.487Z,16.80
2024-05-09T00:59:20.246Z,16.80
2024-05-09T01:03:23.469Z,16.60
2024-05-09T01:07:26.627Z,16.70
2024-05-09T01:11:42.061Z,16.70
2024-05-09T01:15:45.225Z,16.70
2024-05-09T01:19:48.250Z,16.60
2024-05-09T01:23:52.589Z,16.70
2024-05-09T01:27:55.819Z,16.60
2024-05-09T01:32:05.835Z,16.70
2024-05-09T01:36:11.977Z,16.70
2024-05-09T01:40:33.298Z,16.70
2024-05-09T01:44:43.492Z,16.70
2024-05-09T01:48:47.096Z,16.60
2024-05-09T01:52:50.645Z,16.60
2024-05-09T01:56:53.600Z,16.50
2024-05-09T02:00:56.910Z,16.50
2024-05-09T02:05:00.050Z,16.50
2024-05-09T02:09:03.097Z,16.50
2024-05-09T02:13:07.869Z,16.50
2024-05-09T02:17:10.960Z,16.50
2024-05-09T02:21:14.063Z,16.60
2024-05-09T02:25:17.311Z,16.70
2024-05-09T02:29:21.427Z,16.80
2024-05-09T02:33:24.611Z,16.80
2024-05-09T02:37:28.089Z,16.80
2024-05-09T02:41:31.186Z,16.80
2024-05-09T02:45:34.723Z,16.90
2024-05-09T02:49:37.959Z,16.90
2024-05-09T02:53:41.011Z,16.90
2024-05-09T02:57:44.215Z,16.90
2024-05-09T03:01:47.332Z,16.90
2024-05-09T03:05:50.465Z,17.00
2024-05-09T03:09:53.810Z,17.00
2024-05-09T03:13:56.788Z,17.00
2024-05-09T03:18:01.173Z,17.00
2024-05-09T03:22:04.553Z,17.00
2024-05-09T03:26:16.124Z,17.00
2024-05-09T03:30:26.181Z,17.00
2024-05-09T03:34:41.696Z,17.00
2024-05-09T03:38:44.788Z,17.00
2024-05-09T03:42:47.715Z,17.00
2024-05-09T03:46:50.736Z,17.00
2024-05-09T03:50:53.978Z,17.00
2024-05-09T03:54:57.058Z,17.00
2024-05-09T03:59:00.162Z,17.00
2024-05-09T04:03:10.441Z,17.00
2024-05-09T04:07:15.880Z,17.00
2024-05-09T04:11:22.260Z,17.00
2024-05-09T04:15:27.912Z,17.00
2024-05-09T04:19:31.762Z,17.00
2024-05-09T04:23:34.885Z,16.90
2024-05-09T04:27:38.088Z,17.00
2024-05-09T04:31:42.058Z,17.00
2024-05-09T04:35:46.578Z,17.00
2024-05-09T04:39:51.709Z,17.00
2024-05-09T04:43:55.004Z,17.00
2024-05-09T04:47:58.497Z,17.00
2024-05-09T04:52:03.282Z,17.00
2024-05-09T04:56:07.371Z,17.00
2024-05-09T05:00:14.785Z,17.10
2024-05-09T05:04:25.290Z,17.10
2024-05-09T05:08:32.646Z,17.10
2024-05-09T05:12:54.998Z,17.10
2024-05-09T05:16:58.319Z,17.10
2024-05-09T05:21:01.877Z,17.20
2024-05-09T05:25:05.238Z,17.30
2024-05-09T05:29:08.304Z,17.30
2024-05-09T05:33:14.723Z,17.50
2024-05-09T05:37:18.310Z,17.50
2024-05-09T05:41:21.474Z,17.70
2024-05-09T05:45:24.628Z,17.80
2024-05-09T05:49:27.771Z,17.90
2024-05-09T05:53:30.923Z,18.10
2024-05-09T05:57:34.249Z,18.10
2024-05-09T06:01:37.251Z,18.20
2024-05-09T06:05:40.854Z,18.30
2024-05-09T06:09:46.053Z,18.30
2024-05-09T06:13:50.407Z,18.40
2024-05-09T06:17:53.817Z,18.50
2024-05-09T06:21:56.991Z,18.50
2024-05-09T06:25:59.950Z,18.70
2024-05-09T06:30:03.659Z,18.80
2024-05-09T06:34:06.825Z,18.90
2024-05-09T06:38:10.621Z,18.90
2024-05-09T06:42:13.856Z,19.00
2024-05-09T06:46:17.562Z,19.20
2024-05-09T06:50:24.260Z,19.40
2024-05-09T06:54:31.336Z,19.60
2024-05-09T06:58:35.803Z,19.50
2024-05-09T07:02:39.010Z,19.60
2024-05-09T07:06:42.141Z,19.70
2024-05-09T07:10:45.333Z,19.70
2024-05-09T07:14:48.451Z,19.90
2024-05-09T07:18:55.197Z,20.00
2024-05-09T07:22:58.232Z,20.20
2024-05-09T07:27:01.264Z,20.30
2024-05-09T07:31:04.345Z,20.30
2024-05-09T07:35:07.894Z,20.30
2024-05-09T07:39:11.264Z,20.30
2024-05-09T07:43:15.319Z,20.30
2024-05-09T07:48:29.026Z,20.30
2024-05-09T07:55:48.220Z,20.40
2024-05-09T07:59:51.267Z,20.40
2024-05-09T08:03:54.933Z,20.40
2024-05-09T08:07:58.126Z,20.60
2024-05-09T08:12:01.101Z,20.80
2024-05-09T08:16:04.342Z,20.80
2024-05-09T08:20:08.637Z,20.90
2024-05-09T08:24:13.168Z,21.00
2024-05-09T08:28:16.474Z,21.10
2024-05-09T08:32:19.638Z,21.30
2024-05-09T08:36:22.637Z,21.40
2024-05-09T08:40:33.379Z,21.50
2024-05-09T08:44:38.980Z,21.50
2024-05-09T08:48:44.279Z,21.50
2024-05-09T08:52:47.774Z,21.70
2024-05-09T08:56:52.165Z,21.90
2024-05-09T09:00:56.774Z,21.90
2024-05-09T09:05:10.823Z,21.90
2024-05-09T09:09:14.605Z,22.00
2024-05-09T09:13:19.009Z,22.10
2024-05-09T09:17:22.164Z,22.10
2024-05-09T09:21:25.207Z,22.10
2024-05-09T09:25:28.135Z,22.40
2024-05-09T09:29:32.036Z,22.60
2024-05-09T09:33:36.292Z,22.50
2024-05-09T09:37:39.570Z,22.50
2024-05-09T09:41:46.642Z,22.60
2024-05-09T09:45:55.536Z,22.80
2024-05-09T09:49:59.580Z,22.90
2024-05-09T09:54:03.926Z,22.90
2024-05-09T09:58:10.849Z,23.00
2024-05-09T10:02:15.369Z,22.90
2024-05-09T10:06:19.362Z,22.90
2024-05-09T10:10:32.136Z,23.10
2024-05-09T10:14:54.112Z,23.30
2024-05-09T10:18:57.282Z,23.20
2024-05-09T10:23:00.298Z,23.20
2024-05-09T10:27:04.622Z,23.30
2024-05-09T10:31:15.332Z,23.40
2024-05-09T10:35:19.660Z,23.30
2024-05-09T10:39:22.871Z,23.30
2024-05-09T10:43:26.561Z,23.40
2024-05-09T10:47:29.943Z,23.50
2024-05-09T10:51:33.026Z,23.60
2024-05-09T10:55:36.031Z,23.50
2024-05-09T10:59:39.803Z,23.70
2024-05-09T11:03:50.023Z,23.60
2024-05-09T11:07:53.268Z,23.50
2024-05-09T11:11:56.359Z,23.40
2024-05-09T11:16:00.456Z,23.30
2024-05-09T11:20:08.054Z,23.30
2024-05-09T11:24:13.879Z,23.40
2024-05-09T11:28:21.284Z,23.80
2024-05-09T11:32:31.361Z,24.00
2024-05-09T11:36:34.393Z,24.10
2024-05-09T11:40:38.798Z,24.10
2024-05-09T11:44:41.689Z,24.00
2024-05-09T11:48:45.285Z,24.10
2024-05-09T11:52:48.272Z,24.10
2024-05-09T11:56:51.792Z,24.00
2024-05-09T12:00:54.849Z,23.90
2024-05-09T12:04:57.905Z,23.70
2024-05-09T12:09:01.040Z,23.60
2024-05-09T12:13:05.957Z,23.60
2024-05-09T12:17:10.367Z,23.50
2024-05-09T12:21:17.048Z,23.60
2024-05-09T12:25:20.091Z,23.50
2024-05-09T12:29:23.380Z,23.50
2024-05-09T12:33:26.441Z,23.50
2024-05-09T12:37:29.591Z,23.50
2024-05-09T12:41:32.669Z,23.60
2024-05-09T12:45:35.870Z,23.70
2024-05-09T12:49:39.166Z,23.80
2024-05-09T12:53:42.187Z,23.90
2024-05-09T12:57:45.326Z,23.90
2024-05-09T13:01:48.443Z,23.70
2024-05-09T13:05:52.231Z,23.70
2024-05-09T13:09:55.315Z,23.80
2024-05-09T13:13:58.333Z,23.80
2024-05-09T13:18:03.222Z,23.80
2024-05-09T13:22:09.459Z,23.60
2024-05-09T13:26:12.619Z,23.50
2024-05-09T13:30:25.409Z,23.50
2024-05-09T13:34:33.280Z,23.50
2024-05-09T13:38:36.271Z,23.60
2024-05-09T13:42:40.123Z,23.70
2024-05-09T13:46:43.319Z,23.70
2024-05-09T13:50:47.324Z,23.90
2024-05-09T13:54:50.430Z,23.90
2024-05-09T13:58:54.960Z,24.10
2024-05-09T14:02:58.751Z,24.30
2024-05-09T14:07:02.014Z,24.30
2024-05-09T14:11:05.347Z,24.50
2024-05-09T14:15:08.510Z,24.50
2024-05-09T14:19:11.623Z,24.70
2024-05-09T14:23:17.573Z,24.70
2024-05-09T14:27:20.758Z,24.80
2024-05-09T14:31:23.850Z,24.80
2024-05-09T14:35:26.920Z,24.70
2024-05-09T14:39:29.987Z,24.70
2024-05-09T14:43:33.172Z,24.60
2024-05-09T14:47:36.764Z,24.50
2024-05-09T14:51:41.077Z,24.50
2024-05-09T14:55:44.358Z,24.40
2024-05-09T14:59:47.589Z,24.50
2024-05-09T15:03:51.052Z,24.60
2024-05-09T15:07:54.249Z,24.70
2024-05-09T15:12:09.710Z,24.80
2024-05-09T15:16:12.972Z,24.70
2024-05-09T15:20:20.232Z,24.60
2024-05-09T15:24:26.705Z,24.60
2024-05-09T15:28:30.314Z,24.70
2024-05-09T15:32:33.681Z,25.00
2024-05-09T15:36:37.790Z,25.00
2024-05-09T15:40:41.698Z,25.20
2024-05-09T15:44:45.438Z,25.40
2024-05-09T15:48:48.751Z,25.40
2024-05-09T15:52:51.955Z,25.50
2024-05-09T15:56:56.025Z,25.30
2024-05-09T16:00:59.328Z,25.30
2024-05-09T16:05:02.495Z,25.30
2024-05-09T16:09:06.624Z,25.20
2024-05-09T16:13:09.906Z,25.30
2024-05-09T16:17:16.413Z,25.80
2024-05-09T16:21:19.558Z,26.50
2024-05-09T16:25:22.690Z,26.80
2024-05-09T16:29:25.811Z,26.90
2024-05-09T16:33:29.305Z,26.90
2024-05-09T16:37:32.621Z,27.00
2024-05-09T16:41:36.272Z,26.90
2024-05-09T16:45:44.188Z,26.60
2024-05-09T16:49:47.408Z,27.20
2024-05-09T16:53:50.373Z,27.60
2024-05-09T16:57:53.792Z,27.50
2024-05-09T17:01:56.972Z,27.00
2024-05-09T17:06:03.489Z,26.80
2024-05-09T17:10:10.049Z,26.60
2024-05-09T17:14:15.246Z,26.50
2024-05-09T17:18:18.388Z,26.10
2024-05-09T17:22:22.368Z,26.00
2024-05-09T17:26:32.589Z,25.90
2024-05-09T17:30:38.604Z,25.80
2024-05-09T17:34:43.395Z,25.50
2024-05-09T17:38:47.111Z,24.90
2024-05-09T17:42:50.142Z,24.10
2024-05-09T17:46:53.182Z,23.50
2024-05-09T17:50:56.242Z,23.00
2024-05-09T17:54:59.301Z,22.50
2024-05-09T17:59:02.374Z,22.20
2024-05-09T18:03:06.361Z,22.00
2024-05-09T18:07:09.643Z,21.60
2024-05-09T18:11:12.719Z,21.40
2024-05-09T18:15:18.184Z,21.20
2024-05-09T18:19:21.241Z,21.00
2024-05-09T18:23:24.389Z,20.80
2024-05-09T18:27:27.543Z,20.60
2024-05-09T18:31:30.618Z,20.40
2024-05-09T18:35:33.685Z,20.30
2024-05-09T18:39:36.712Z,20.20
2024-05-09T18:43:45.395Z,20.10
2024-05-09T18:47:51.738Z,20.00
2024-05-09T18:51:54.740Z,19.80
2024-05-09T18:55:58.246Z,19.70
2024-05-09T19:00:01.299Z,19.60
2024-05-09T19:04:04.635Z,19.50
2024-05-09T19:08:08.241Z,19.50
2024-05-09T19:12:11.340Z,19.30
2024-05-09T19:16:14.271Z,19.20
2024-05-09T19:20:25.246Z,19.10
2024-05-09T19:24:34.407Z,19.10
2024-05-09T19:28:37.357Z,19.00
2024-05-09T19:32:41.477Z,19.00
2024-05-09T19:36:44.577Z,19.00
2024-05-09T19:40:47.664Z,19.00
2024-05-09T19:44:50.732Z,18.90
2024-05-09T19:48:54.139Z,18.90
2024-05-09T19:52:57.376Z,18.80
2024-05-09T19:57:00.425Z,18.90
2024-05-09T20:01:03.585Z,18.80
2024-05-09T20:05:07.308Z,18.80
2024-05-09T20:09:10.566Z,18.80
2024-05-09T20:13:13.921Z,18.80
2024-05-09T20:17:17.534Z,18.80
2024-05-09T20:21:20.563Z,18.70
2024-05-09T20:25:23.501Z,18.60
2024-05-09T20:29:26.473Z,18.60
2024-05-09T20:33:29.696Z,18.50
2024-05-09T20:37:32.571Z,18.50
2024-05-09T20:41:37.070Z,18.50
2024-05-09T20:45:40.767Z,18.50
2024-05-09T20:49:45.986Z,18.50
2024-05-09T20:53:49.183Z,18.40
2024-05-09T20:57:52.263Z,18.40
2024-05-09T21:01:56.414Z,18.40
2024-05-09T21:05:59.353Z,18.30
2024-05-09T21:10:04.659Z,18.30
2024-05-09T21:14:09.434Z,18.30
2024-05-09T21:18:12.516Z,18.20
2024-05-09T21:22:15.582Z,18.10
2024-05-09T21:26:19.716Z,18.10
2024-05-09T21:30:32.490Z,18.10
2024-05-09T21:34:43.440Z,18.10
2024-05-09T21:38:46.402Z,18.00
2024-05-09T21:42:49.670Z,18.00
2024-05-09T21:46:52.568Z,17.90
2024-05-09T21:50:55.507Z,17.90
2024-05-09T21:54:58.440Z,17.80
2024-05-09T21:59:01.725Z,17.80
2024-05-09T22:03:09.306Z,17.80
2024-05-09T22:07:13.472Z,17.90
2024-05-09T22:11:16.899Z,17.80
2024-05-09T22:15:20.610Z,17.90
2024-05-09T22:19:23.624Z,17.80
2024-05-09T22:23:26.521Z,17.80
2024-05-09T22:27:29.374Z,17.80
2024-05-09T22:31:32.280Z,17.70
2024-05-09T22:35:35.321Z,17.70
2024-05-09T22:39:38.287Z,17.70
2024-05-09T22:43:41.180Z,17.70
2024-05-09T22:47:44.163Z,17.70
2024-05-09T22:51:47.250Z,17.70
2024-05-09T22:55:50.130Z,17.70
2024-05-09T22:59:53.123Z,17.60
2024-05-09T23:03:56.254Z,17.70
2024-05-09T23:08:00.528Z,17.60
2024-05-09T23:12:03.649Z,17.60
2024-05-09T23:16:06.889Z,17.60
2024-05-09T23:20:11.638Z,17.50
2024-05-09T23:24:14.788Z,17.50
2024-05-09T23:28:18.034Z,17.50
2024-05-09T23:32:21.401Z,17.50
2024-05-09T23:36:26.686Z,17.50
2024-05-09T23:40:38.154Z,17.50
2024-05-09T23:44:43.728Z,17.50
2024-05-09T23:48:46.755Z,17.40
2024-05-09T23:52:49.730Z,17.50
2024-05-09T23:56:52.712Z,17.50
